Time;durP1;ratioP1;P1;durP2;ratioP2;P2;SDS_P1;SDS_P2;PMS_P1;PMS_P2;Temp;Humidity;BMP_temperature;BMP_pressure;BME280_temperature;BME280_humidity;BME280_pressure;Samples;Min_cycle;Max_cycle;Signal;HPM_P1;HPM_P2
2022/11/01 00:01:04;;;;;;;11.75;5.07;;;;;;;;;;4879182;29;20053;-63
2022/11/01 00:03:31;;;;;;;7.45;4.85;;;;;;;;;;4878434;29;20055;-63
2022/11/01 00:05:57;;;;;;;11.63;4.55;;;;;;;;;;4879119;29;20045;-64
2022/11/01 00:08:24;;;;;;;9.25;4.80;;;;;;;;;;4877790;29;20109;-63
2022/11/01 00:10:50;;;;;;;9.15;4.90;;;;;;;;;;4878739;29;20048;-64
2022/11/01 00:13:16;;;;;;;12.05;5.35;;;;;;;;;;4878507;29;20041;-63
2022/11/01 00:15:43;;;;;;;10.30;4.90;;;;;;;;;;4879014;29;20399;-63
2022/11/01 00:18:10;;;;;;;10.65;5.25;;;;;;;;;;4877657;29;20464;-63
2022/11/01 00:20:36;;;;;;;10.75;4.85;;;;;;;;;;4878929;29;20439;-64
2022/11/01 00:23:03;;;;;;;13.82;4.65;;;;;;;;;;4878552;29;20397;-64
2022/11/01 00:25:30;;;;;;;9.63;4.57;;;;;;;;;;4879399;29;20048;-64
2022/11/01 00:27:56;;;;;;;15.35;4.72;;;;;;;;;;4879850;29;20564;-63
2022/11/01 00:30:22;;;;;;;8.63;4.55;;;;;;;;;;4878619;29;20049;-64
2022/11/01 00:32:49;;;;;;;13.05;4.50;;;;;;;;;;4879896;29;20119;-64
2022/11/01 00:35:16;;;;;;;17.83;5.57;;;;;;;;;;4863354;29;20072;-64
2022/11/01 00:37:42;;;;;;;12.10;5.15;;;;;;;;;;4879864;29;20565;-61
2022/11/01 00:40:09;;;;;;;8.85;5.15;;;;;;;;;;4879820;29;20383;-62
2022/11/01 00:42:35;;;;;;;13.65;5.65;;;;;;;;;;4877317;29;20493;-62
2022/11/01 00:45:03;;;;;;;12.55;5.43;;;;;;;;;;4877473;29;20055;-62
2022/11/01 00:47:30;;;;;;;8.38;5.03;;;;;;;;;;4877384;29;20049;-62
2022/11/01 00:49:56;;;;;;;9.82;5.55;;;;;;;;;;4878548;29;20033;-62
2022/11/01 00:52:23;;;;;;;11.05;4.80;;;;;;;;;;4877900;29;20045;-63
2022/11/01 00:54:49;;;;;;;12.45;5.30;;;;;;;;;;4877639;29;20506;-63
2022/11/01 00:57:15;;;;;;;10.50;5.22;;;;;;;;;;4878521;29;20041;-63
2022/11/01 00:59:42;;;;;;;12.90;5.82;;;;;;;;;;4877454;29;20053;-63
2022/11/01 01:02:08;;;;;;;9.30;4.70;;;;;;;;;;4877830;29;20041;-65
2022/11/01 01:04:40;;;;;;;11.25;4.88;;;;;;;;;;4878407;29;20071;-62
2022/11/01 01:07:06;;;;;;;9.02;4.55;;;;;;;;;;4877190;29;20135;-63
2022/11/01 01:09:33;;;;;;;10.77;4.65;;;;;;;;;;4878449;29;20049;-63
2022/11/01 01:12:00;;;;;;;9.43;4.35;;;;;;;;;;4877835;29;20105;-63
2022/11/01 01:14:27;;;;;;;8.77;4.72;;;;;;;;;;4877109;29;20045;-63
2022/11/01 01:16:58;;;;;;;11.93;4.95;;;;;;;;;;4880682;29;20078;-63
2022/11/01 01:19:24;;;;;;;9.20;4.82;;;;;;;;;;4882211;29;20037;-62
2022/11/01 01:21:50;;;;;;;15.07;5.65;;;;;;;;;;4881256;29;20486;-62
2022/11/01 01:24:17;;;;;;;16.38;5.32;;;;;;;;;;4881976;29;20045;-63
2022/11/01 01:26:43;;;;;;;10.85;4.35;;;;;;;;;;4881846;29;20080;-63
2022/11/01 01:29:10;;;;;;;8.65;5.05;;;;;;;;;;4882497;29;20454;-63
2022/11/01 01:31:36;;;;;;;10.48;5.07;;;;;;;;;;4882793;29;20041;-62
2022/11/01 01:34:03;;;;;;;9.60;4.75;;;;;;;;;;4881512;29;20067;-62
2022/11/01 01:36:29;;;;;;;14.65;4.72;;;;;;;;;;4882787;29;20069;-62
2022/11/01 01:38:55;;;;;;;8.57;4.20;;;;;;;;;;4882296;29;20042;-62
2022/11/01 01:44:25;;;;;;;11.52;4.63;;;;;;;;;;4882069;29;20432;-62
2022/11/01 01:46:52;;;;;;;8.00;5.00;;;;;;;;;;4881856;29;20125;-62
2022/11/01 01:49:18;;;;;;;8.73;4.90;;;;;;;;;;4882049;29;20048;-62
2022/11/01 01:51:45;;;;;;;11.70;5.15;;;;;;;;;;4881727;29;20438;-62
2022/11/01 01:54:11;;;;;;;10.40;5.30;;;;;;;;;;4881428;29;20044;-63
2022/11/01 01:56:37;;;;;;;9.82;5.18;;;;;;;;;;4881591;29;20561;-63
2022/11/01 01:59:05;;;;;;;9.60;4.65;;;;;;;;;;4880528;29;20045;-62
2022/11/01 02:01:34;;;;;;;12.38;5.30;;;;;;;;;;4881497;29;20048;-62
2022/11/01 02:04:02;;;;;;;10.98;5.10;;;;;;;;;;4881882;29;20049;-63
2022/11/01 02:06:31;;;;;;;16.15;5.28;;;;;;;;;;4881456;29;20041;-63
2022/11/01 02:08:59;;;;;;;11.73;5.22;;;;;;;;;;4881019;29;20064;-63
2022/11/01 02:11:25;;;;;;;13.82;4.90;;;;;;;;;;4881019;29;20089;-62
2022/11/01 02:13:51;;;;;;;10.20;5.22;;;;;;;;;;4880668;29;20064;-62
2022/11/01 02:16:30;;;;;;;11.30;4.38;;;;;;;;;;4881047;29;20459;-62
2022/11/01 02:19:02;;;;;;;10.18;5.15;;;;;;;;;;4880935;29;20505;-62
2022/11/01 02:21:35;;;;;;;10.75;4.72;;;;;;;;;;4880665;29;20097;-63
2022/11/01 02:24:20;;;;;;;12.43;5.22;;;;;;;;;;4880635;29;20053;-63
2022/11/01 02:26:59;;;;;;;11.40;5.25;;;;;;;;;;4863945;29;20095;-63
2022/11/01 02:29:46;;;;;;;12.13;4.63;;;;;;;;;;4880729;29;20053;-63
2022/11/01 02:32:24;;;;;;;12.80;4.85;;;;;;;;;;4880077;29;20041;-63
2022/11/01 02:34:50;;;;;;;11.65;4.75;;;;;;;;;;4879682;29;20499;-63
2022/11/01 02:37:33;;;;;;;9.90;4.88;;;;;;;;;;4880591;29;20049;-63
2022/11/01 02:40:04;;;;;;;16.45;4.85;;;;;;;;;;4879447;29;20049;-63
2022/11/01 02:42:34;;;;;;;11.07;5.43;;;;;;;;;;4879891;29;20045;-62
2022/11/01 02:45:04;;;;;;;12.00;5.43;;;;;;;;;;4880338;29;20041;-63
2022/11/01 02:47:31;;;;;;;13.13;5.40;;;;;;;;;;4880444;29;20101;-63
2022/11/01 02:49:59;;;;;;;16.60;5.65;;;;;;;;;;4879063;29;20101;-63
2022/11/01 02:52:27;;;;;;;11.48;5.20;;;;;;;;;;4879706;29;20041;-63
2022/11/01 02:54:58;;;;;;;15.48;6.15;;;;;;;;;;4880241;29;20041;-63
2022/11/01 02:57:27;;;;;;;8.07;5.55;;;;;;;;;;4880903;29;20049;-61
2022/11/01 03:00:03;;;;;;;9.95;5.07;;;;;;;;;;4880248;29;20489;-63
2022/11/01 03:02:38;;;;;;;10.57;6.25;;;;;;;;;;4879781;29;20105;-62
2022/11/01 03:05:15;;;;;;;11.25;5.57;;;;;;;;;;4880141;29;20097;-63
2022/11/01 03:07:44;;;;;;;11.70;5.15;;;;;;;;;;4880191;29;20052;-63
2022/11/01 03:10:11;;;;;;;10.63;5.25;;;;;;;;;;4880420;29;20041;-63
2022/11/01 03:12:43;;;;;;;9.20;5.53;;;;;;;;;;4879488;29;20045;-63
2022/11/01 03:15:19;;;;;;;13.57;5.30;;;;;;;;;;4880405;29;20417;-63
2022/11/01 03:17:51;;;;;;;12.50;5.70;;;;;;;;;;4880231;29;20435;-65
2022/11/01 03:20:46;;;;;;;13.20;5.50;;;;;;;;;;4880308;29;20442;-64
2022/11/01 03:23:17;;;;;;;13.70;6.25;;;;;;;;;;4879138;29;20044;-63
2022/11/01 03:25:49;;;;;;;9.95;5.55;;;;;;;;;;4879577;29;20402;-63
2022/11/01 03:28:21;;;;;;;9.68;6.05;;;;;;;;;;4863091;29;20466;-63
2022/11/01 03:30:50;;;;;;;14.05;6.32;;;;;;;;;;4879311;29;20045;-63
2022/11/01 03:33:17;;;;;;;11.02;5.00;;;;;;;;;;4878925;29;20045;-63
2022/11/01 03:35:45;;;;;;;12.13;5.50;;;;;;;;;;4879468;29;20101;-63
2022/11/01 03:38:16;;;;;;;10.05;5.45;;;;;;;;;;4879159;29;20045;-63
2022/11/01 03:40:49;;;;;;;9.93;5.32;;;;;;;;;;4879168;29;20048;-63
2022/11/01 03:43:17;;;;;;;7.75;4.82;;;;;;;;;;4878695;29;20064;-63
2022/11/01 03:45:44;;;;;;;10.45;5.95;;;;;;;;;;4879185;29;20465;-63
2022/11/01 03:48:10;;;;;;;10.63;4.43;;;;;;;;;;4879290;29;20129;-63
2022/11/01 03:50:39;;;;;;;10.65;4.40;;;;;;;;;;4879143;29;20390;-63
2022/11/01 03:53:05;;;;;;;9.07;4.10;;;;;;;;;;4877478;29;20054;-63
2022/11/01 03:55:31;;;;;;;10.27;4.65;;;;;;;;;;4878052;29;20049;-63
2022/11/01 03:57:58;;;;;;;6.97;5.03;;;;;;;;;;4877935;29;20089;-63
2022/11/01 04:00:29;;;;;;;9.05;5.00;;;;;;;;;;4878983;29;20041;-63
2022/11/01 04:02:56;;;;;;;7.90;4.57;;;;;;;;;;4877215;29;20097;-63
2022/11/01 04:05:23;;;;;;;10.25;4.85;;;;;;;;;;4878926;29;20590;-63
2022/11/01 04:07:50;;;;;;;11.00;4.90;;;;;;;;;;4878863;29;20041;-62
2022/11/01 04:10:17;;;;;;;6.97;4.90;;;;;;;;;;4877638;29;20037;-62
2022/11/01 04:12:44;;;;;;;8.15;4.55;;;;;;;;;;4876951;29;20125;-63
2022/11/01 04:20:51;;;;;;;6.65;4.80;;;;;;;;;;4877909;29;20048;-63
2022/11/01 04:23:18;;;;;;;6.97;4.47;;;;;;;;;;4878139;29;20041;-64
2022/11/01 04:25:45;;;;;;;6.57;4.28;;;;;;;;;;4877643;29;20041;-64
2022/11/01 04:28:13;;;;;;;8.40;4.35;;;;;;;;;;4878616;29;20505;-63
2022/11/01 04:30:39;;;;;;;5.75;4.13;;;;;;;;;;4878658;29;20101;-63
2022/11/01 04:33:06;;;;;;;9.70;4.60;;;;;;;;;;4878115;29;20078;-63
2022/11/01 04:35:34;;;;;;;4.72;3.47;;;;;;;;;;4878516;29;20045;-63
2022/11/01 04:38:00;;;;;;;7.47;3.85;;;;;;;;;;4878417;29;20037;-65
2022/11/01 04:40:27;;;;;;;6.32;4.03;;;;;;;;;;4878506;29;20041;-62
2022/11/01 04:42:53;;;;;;;6.93;4.20;;;;;;;;;;4877717;29;20490;-62
2022/11/01 04:45:20;;;;;;;8.02;4.18;;;;;;;;;;4878336;29;20049;-62
2022/11/01 04:47:51;;;;;;;6.72;4.15;;;;;;;;;;4877031;29;20135;-62
2022/11/01 04:50:18;;;;;;;6.85;3.95;;;;;;;;;;4877888;29;20045;-64
2022/11/01 04:52:46;;;;;;;7.15;4.18;;;;;;;;;;4877734;29;20045;-63
2022/11/01 04:55:12;;;;;;;7.72;4.63;;;;;;;;;;4878180;29;20052;-63
2022/11/01 04:57:39;;;;;;;6.68;3.58;;;;;;;;;;4876995;29;20049;-64
2022/11/01 05:03:01;;;;;;;8.23;3.72;;;;;;;;;;5137380;23;20052;-65
2022/11/01 05:05:29;;;;;;;7.88;3.70;;;;;;;;;;4897030;29;20044;-64
2022/11/01 05:08:02;;;;;;;6.20;3.38;;;;;;;;;;4895766;29;20481;-63
2022/11/01 05:10:29;;;;;;;5.90;3.05;;;;;;;;;;4896971;29;20544;-63
2022/11/01 05:12:56;;;;;;;6.97;3.80;;;;;;;;;;4882523;29;20041;-63
2022/11/01 05:15:22;;;;;;;7.03;3.53;;;;;;;;;;4878227;29;20425;-63
2022/11/01 05:17:48;;;;;;;3.90;3.17;;;;;;;;;;4877054;29;20052;-64
2022/11/01 05:20:15;;;;;;;6.45;3.78;;;;;;;;;;4878234;29;20041;-64
2022/11/01 05:22:41;;;;;;;5.30;3.55;;;;;;;;;;4877803;29;20671;-64
2022/11/01 05:25:08;;;;;;;5.32;3.92;;;;;;;;;;4876856;29;20057;-64
2022/11/01 05:27:35;;;;;;;8.60;3.85;;;;;;;;;;4876979;29;20525;-63
2022/11/01 05:30:02;;;;;;;5.68;3.67;;;;;;;;;;4878186;29;20045;-64
2022/11/01 05:32:28;;;;;;;5.93;3.40;;;;;;;;;;4877455;29;20042;-65
2022/11/01 05:34:54;;;;;;;5.95;3.70;;;;;;;;;;4878131;29;20501;-64
2022/11/01 05:37:21;;;;;;;6.05;3.65;;;;;;;;;;4878038;29;20042;-64
2022/11/01 05:39:53;;;;;;;9.38;4.13;;;;;;;;;;4876823;29;20056;-64
2022/11/01 05:42:19;;;;;;;4.90;3.83;;;;;;;;;;4877640;29;20053;-64
2022/11/01 05:44:46;;;;;;;7.75;3.40;;;;;;;;;;4878122;29;20167;-65
2022/11/01 05:47:12;;;;;;;6.95;3.70;;;;;;;;;;4878573;29;20060;-64
2022/11/01 05:49:42;;;;;;;10.07;3.58;;;;;;;;;;4878565;29;20049;-63
2022/11/01 05:52:09;;;;;;;6.22;4.10;;;;;;;;;;4876170;29;20052;-64
2022/11/01 05:54:35;;;;;;;4.97;3.47;;;;;;;;;;4877128;29;20041;-65
2022/11/01 05:57:03;;;;;;;6.22;3.20;;;;;;;;;;4877313;29;20498;-64
2022/11/01 05:59:30;;;;;;;5.97;3.40;;;;;;;;;;4878242;29;20096;-64
2022/11/01 06:01:56;;;;;;;4.55;3.10;;;;;;;;;;4878671;29;20502;-64
2022/11/01 06:04:23;;;;;;;5.03;3.65;;;;;;;;;;4882250;29;20051;-64
2022/11/01 06:06:49;;;;;;;6.30;3.65;;;;;;;;;;4882450;29;20049;-63
2022/11/01 06:09:16;;;;;;;5.82;3.17;;;;;;;;;;4882088;29;20041;-63
2022/11/01 06:11:42;;;;;;;6.88;3.40;;;;;;;;;;4881670;29;20044;-64
2022/11/01 06:14:09;;;;;;;4.15;3.05;;;;;;;;;;4882405;29;20041;-63
2022/11/01 06:16:35;;;;;;;6.50;3.30;;;;;;;;;;4881496;29;20119;-64
2022/11/01 06:19:02;;;;;;;7.53;3.30;;;;;;;;;;4883183;29;20048;-64
2022/11/01 06:21:28;;;;;;;6.32;3.47;;;;;;;;;;4883082;29;20097;-64
2022/11/01 06:23:55;;;;;;;5.03;3.17;;;;;;;;;;4881579;29;20049;-64
2022/11/01 06:26:22;;;;;;;5.35;2.72;;;;;;;;;;4883708;29;20049;-64
2022/11/01 06:28:48;;;;;;;6.38;3.28;;;;;;;;;;4883867;29;20048;-65
2022/11/01 06:31:15;;;;;;;7.13;3.90;;;;;;;;;;4867405;29;20052;-64
2022/11/01 06:33:41;;;;;;;4.88;3.67;;;;;;;;;;4882627;29;20045;-65
2022/11/01 06:36:08;;;;;;;6.72;3.30;;;;;;;;;;4884022;29;20056;-65
2022/11/01 06:38:34;;;;;;;6.32;3.67;;;;;;;;;;4882520;29;20057;-65
2022/11/01 06:41:01;;;;;;;5.43;3.00;;;;;;;;;;4882293;29;20069;-65
2022/11/01 06:43:27;;;;;;;6.05;2.83;;;;;;;;;;4879888;29;20549;-64
2022/11/01 06:45:54;;;;;;;6.18;3.30;;;;;;;;;;4880009;29;20045;-65
2022/11/01 06:48:20;;;;;;;8.23;2.90;;;;;;;;;;4881301;29;20044;-65
2022/11/01 06:50:47;;;;;;;6.45;2.72;;;;;;;;;;4881266;29;20546;-63
2022/11/01 06:53:13;;;;;;;4.68;2.75;;;;;;;;;;4880606;29;20521;-65
2022/11/01 06:55:40;;;;;;;6.07;3.25;;;;;;;;;;4881022;29;20081;-64
2022/11/01 06:58:07;;;;;;;5.80;3.17;;;;;;;;;;4879766;29;20497;-63
2022/11/01 07:00:34;;;;;;;6.25;3.45;;;;;;;;;;4881085;29;20040;-64
2022/11/01 07:03:03;;;;;;;6.15;3.45;;;;;;;;;;4880695;29;20506;-63
2022/11/01 07:05:31;;;;;;;13.65;6.45;;;;;;;;;;4885217;29;20607;-63
2022/11/01 07:08:03;;;;;;;6.57;3.35;;;;;;;;;;4883812;29;20052;-65
2022/11/01 07:10:30;;;;;;;7.90;3.35;;;;;;;;;;4867113;29;20049;-64
2022/11/01 07:13:00;;;;;;;8.20;2.80;;;;;;;;;;4881639;29;20045;-63
2022/11/01 07:15:27;;;;;;;4.40;2.63;;;;;;;;;;4882754;29;20041;-64
2022/11/01 07:17:55;;;;;;;4.65;2.42;;;;;;;;;;4884417;29;20101;-64
2022/11/01 07:20:22;;;;;;;5.85;2.40;;;;;;;;;;4885213;29;20049;-64
2022/11/01 07:22:56;;;;;;;6.75;2.85;;;;;;;;;;4884365;29;20082;-64
2022/11/01 07:25:22;;;;;;;4.07;2.42;;;;;;;;;;4885001;29;20315;-64
2022/11/01 07:27:49;;;;;;;6.75;2.53;;;;;;;;;;4882449;29;20056;-63
2022/11/01 07:30:15;;;;;;;6.60;3.08;;;;;;;;;;4883476;29;20053;-63
2022/11/01 07:32:41;;;;;;;4.85;2.35;;;;;;;;;;4881837;29;20048;-64
2022/11/01 07:35:08;;;;;;;5.20;2.45;;;;;;;;;;4882602;29;20075;-64
2022/11/01 07:37:35;;;;;;;4.65;2.63;;;;;;;;;;4881737;29;20056;-65
2022/11/01 07:40:02;;;;;;;5.07;2.75;;;;;;;;;;4883406;29;20049;-65
2022/11/01 07:42:28;;;;;;;6.70;2.60;;;;;;;;;;4882567;29;20056;-64
2022/11/01 07:44:55;;;;;;;4.50;2.40;;;;;;;;;;4884511;29;20052;-63
2022/11/01 07:47:21;;;;;;;3.58;2.50;;;;;;;;;;4885183;29;20403;-64
2022/11/01 07:49:49;;;;;;;4.70;2.35;;;;;;;;;;4884009;29;20054;-64
2022/11/01 07:52:15;;;;;;;5.22;2.50;;;;;;;;;;4879516;29;20048;-64
2022/11/01 07:54:41;;;;;;;5.07;2.33;;;;;;;;;;4880218;29;20045;-64
2022/11/01 07:57:08;;;;;;;3.97;2.80;;;;;;;;;;4879963;29;20596;-65
2022/11/01 07:59:34;;;;;;;3.08;2.20;;;;;;;;;;4863399;29;20502;-64
2022/11/01 08:02:01;;;;;;;3.63;1.80;;;;;;;;;;4877984;29;20040;-65
2022/11/01 08:04:33;;;;;;;4.18;2.20;;;;;;;;;;4879534;29;20056;-64
2022/11/01 08:06:59;;;;;;;3.60;1.67;;;;;;;;;;4878284;29;20519;-65
2022/11/01 08:09:25;;;;;;;3.25;1.70;;;;;;;;;;4878085;29;20053;-65
2022/11/01 08:11:52;;;;;;;3.30;2.40;;;;;;;;;;4878690;29;20048;-64
2022/11/01 08:14:18;;;;;;;4.72;1.92;;;;;;;;;;4879160;29;20630;-64
2022/11/01 08:16:47;;;;;;;2.55;1.80;;;;;;;;;;4879195;29;20041;-64
2022/11/01 08:19:13;;;;;;;5.22;1.90;;;;;;;;;;4879124;29;20077;-63
2022/11/01 08:21:40;;;;;;;4.72;1.60;;;;;;;;;;4878828;29;20567;-66
2022/11/01 08:24:06;;;;;;;3.10;1.50;;;;;;;;;;4878961;29;20052;-64
2022/11/01 08:26:33;;;;;;;6.05;2.00;;;;;;;;;;4879023;29;20053;-63
2022/11/01 08:28:59;;;;;;;4.82;1.80;;;;;;;;;;4877902;29;20574;-63
2022/11/01 08:31:26;;;;;;;3.95;1.85;;;;;;;;;;4878730;29;20112;-63
2022/11/01 08:33:52;;;;;;;2.90;1.50;;;;;;;;;;4878621;29;20048;-64
2022/11/01 08:36:20;;;;;;;7.30;1.75;;;;;;;;;;4877690;29;20117;-64
2022/11/01 08:38:47;;;;;;;2.28;1.15;;;;;;;;;;4877564;29;20049;-64
2022/11/01 08:41:13;;;;;;;3.55;1.55;;;;;;;;;;4878732;29;20124;-64
2022/11/01 08:43:47;;;;;;;4.60;1.08;;;;;;;;;;4877451;29;20146;-64
2022/11/01 08:46:13;;;;;;;4.13;1.85;;;;;;;;;;4878635;29;20390;-63
2022/11/01 08:48:40;;;;;;;3.90;1.67;;;;;;;;;;4878730;29;20104;-63
2022/11/01 08:51:06;;;;;;;3.58;1.60;;;;;;;;;;4862102;29;20052;-65
2022/11/01 08:53:33;;;;;;;4.38;1.23;;;;;;;;;;4878183;29;20045;-64
2022/11/01 08:55:59;;;;;;;3.03;1.40;;;;;;;;;;4878683;29;20056;-66
2022/11/01 08:58:25;;;;;;;1.40;0.88;;;;;;;;;;4878495;29;20070;-64
2022/11/01 09:00:52;;;;;;;5.03;1.23;;;;;;;;;;4878975;29;20059;-65
2022/11/01 09:03:18;;;;;;;4.10;1.02;;;;;;;;;;4877994;29;20053;-64
2022/11/01 09:05:45;;;;;;;4.15;1.40;;;;;;;;;;4878557;29;20455;-64
2022/11/01 09:08:11;;;;;;;1.77;1.05;;;;;;;;;;4878540;29;20049;-65
2022/11/01 09:10:38;;;;;;;4.38;1.38;;;;;;;;;;4878555;29;20406;-65
2022/11/01 09:13:04;;;;;;;1.48;0.63;;;;;;;;;;4878011;29;20055;-64
2022/11/01 09:15:32;;;;;;;3.70;0.95;;;;;;;;;;4877126;29;20116;-65
2022/11/01 09:18:03;;;;;;;2.28;1.00;;;;;;;;;;4877503;29;20045;-64
2022/11/01 09:20:31;;;;;;;3.97;1.35;;;;;;;;;;4878495;29;20056;-65
2022/11/01 09:22:58;;;;;;;2.30;1.17;;;;;;;;;;4876684;29;20049;-65
2022/11/01 09:25:25;;;;;;;1.80;0.98;;;;;;;;;;4878255;29;20407;-65
2022/11/01 09:27:54;;;;;;;1.92;0.90;;;;;;;;;;4877067;29;20459;-65
2022/11/01 09:30:20;;;;;;;3.85;1.25;;;;;;;;;;4878334;29;20056;-63
2022/11/01 09:32:47;;;;;;;2.63;1.33;;;;;;;;;;4877737;29;20048;-64
2022/11/01 09:35:13;;;;;;;4.15;1.50;;;;;;;;;;4878213;29;20041;-64
2022/11/01 09:37:40;;;;;;;3.05;1.42;;;;;;;;;;4879966;29;20041;-64
2022/11/01 09:40:06;;;;;;;3.00;0.68;;;;;;;;;;4880698;29;20049;-65
2022/11/01 09:42:35;;;;;;;2.42;1.20;;;;;;;;;;4881251;29;20052;-65
2022/11/01 09:45:12;;;;;;;6.53;1.67;;;;;;;;;;4881933;29;20521;-65
2022/11/01 09:47:40;;;;;;;2.88;1.20;;;;;;;;;;4880447;29;20056;-64
2022/11/01 09:50:09;;;;;;;4.22;2.20;;;;;;;;;;4881763;29;20040;-66
2022/11/01 09:52:36;;;;;;;6.45;2.03;;;;;;;;;;4880113;29;20097;-65
2022/11/01 09:55:02;;;;;;;2.83;1.00;;;;;;;;;;4880552;29;20045;-65
2022/11/01 09:57:32;;;;;;;4.75;1.20;;;;;;;;;;4881713;29;20141;-64
2022/11/01 09:59:58;;;;;;;6.75;1.30;;;;;;;;;;4882492;29;20406;-65
2022/11/01 10:02:44;;;;;;;3.83;1.35;;;;;;;;;;4880356;29;20057;-64
2022/11/01 10:05:30;;;;;;;4.88;1.20;;;;;;;;;;4880205;29;20132;-65
2022/11/01 10:08:29;;;;;;;3.78;1.75;;;;;;;;;;4881500;29;20383;-64
2022/11/01 10:11:07;;;;;;;6.50;1.10;;;;;;;;;;4870314;29;20494;-64
2022/11/01 10:13:46;;;;;;;4.97;1.80;;;;;;;;;;4880638;29;20399;-65
2022/11/01 10:16:32;;;;;;;3.45;1.15;;;;;;;;;;4880169;29;20568;-65
2022/11/01 10:19:01;;;;;;;3.97;1.83;;;;;;;;;;4864619;29;20053;-64
2022/11/01 10:21:31;;;;;;;3.80;1.20;;;;;;;;;;4881060;29;20045;-64
2022/11/01 10:23:59;;;;;;;2.65;1.02;;;;;;;;;;4880553;29;20045;-64
2022/11/01 10:26:29;;;;;;;3.58;1.23;;;;;;;;;;4879818;29;20064;-66
2022/11/01 10:29:11;;;;;;;5.63;2.42;;;;;;;;;;4881329;29;20446;-64
2022/11/01 10:31:45;;;;;;;4.03;2.13;;;;;;;;;;4880697;29;20415;-63
2022/11/01 10:34:12;;;;;;;;;;;;;;;;;;4880078;29;20048;-63
2022/11/01 10:36:39;;;;;;;3.63;1.15;;;;;;;;;;4880802;29;20045;-66
2022/11/01 10:39:24;;;;;;;3.92;1.30;;;;;;;;;;4879559;29;20101;-64
2022/11/01 10:42:15;;;;;;;10.02;2.92;;;;;;;;;;4878999;29;20073;-64
2022/11/01 10:44:45;;;;;;;5.28;2.22;;;;;;;;;;4881071;29;20056;-65
2022/11/01 10:47:17;;;;;;;6.03;1.50;;;;;;;;;;4880755;29;20127;-65
2022/11/01 10:49:46;;;;;;;2.20;1.30;;;;;;;;;;4879571;29;20049;-64
2022/11/01 10:52:34;;;;;;;3.92;1.42;;;;;;;;;;4880329;29;20045;-65
2022/11/01 10:55:01;;;;;;;2.28;1.33;;;;;;;;;;4880435;29;20064;-65
2022/11/01 10:57:37;;;;;;;4.05;1.20;;;;;;;;;;4880450;29;20048;-64
2022/11/01 11:00:05;;;;;;;2.97;1.10;;;;;;;;;;4880532;29;20051;-63
2022/11/01 11:02:39;;;;;;;4.72;1.35;;;;;;;;;;4878569;29;20053;-65
2022/11/01 11:05:12;;;;;;;5.25;2.47;;;;;;;;;;4879319;29;20061;-63
2022/11/01 11:07:39;;;;;;;4.43;1.38;;;;;;;;;;4880438;29;20535;-66
2022/11/01 11:10:18;;;;;;;2.38;0.98;;;;;;;;;;4878809;29;20113;-64
2022/11/01 11:12:51;;;;;;;4.53;1.83;;;;;;;;;;4879742;29;20044;-65
2022/11/01 11:15:19;;;;;;;4.07;1.40;;;;;;;;;;4879252;29;20049;-65
2022/11/01 11:17:48;;;;;;;5.40;1.63;;;;;;;;;;4880581;29;20128;-66
2022/11/01 11:20:19;;;;;;;10.60;6.60;;;;;;;;;;4880394;29;20051;-64
2022/11/01 11:22:46;;;;;;;7.03;3.38;;;;;;;;;;4878456;29;20184;-64
2022/11/01 11:25:14;;;;;;;6.55;2.15;;;;;;;;;;4880220;29;20048;-65
2022/11/01 11:27:46;;;;;;;2.22;1.00;;;;;;;;;;4880323;29;20041;-65
2022/11/01 11:30:24;;;;;;;4.50;1.10;;;;;;;;;;4880736;29;20108;-65
2022/11/01 11:32:52;;;;;;;5.13;1.10;;;;;;;;;;4879607;29;20064;-65
2022/11/01 11:35:20;;;;;;;5.07;1.23;;;;;;;;;;4880043;29;20047;-64
2022/11/01 11:37:53;;;;;;;4.57;1.20;;;;;;;;;;4879911;29;20045;-64
2022/11/01 11:40:24;;;;;;;4.60;1.53;;;;;;;;;;4880476;29;20041;-65
2022/11/01 11:42:52;;;;;;;4.78;0.98;;;;;;;;;;4879740;29;20291;-64
2022/11/01 11:45:26;;;;;;;5.25;1.98;;;;;;;;;;4880259;29;20132;-64
2022/11/01 11:47:52;;;;;;;;;;;;;;;;;;4879051;29;20418;-64
2022/11/01 11:50:22;;;;;;;3.83;1.50;;;;;;;;;;4879688;29;19923;-64
2022/11/01 11:52:50;;;;;;;4.32;1.02;;;;;;;;;;4879451;29;20144;-65
2022/11/01 11:55:26;;;;;;;4.32;1.45;;;;;;;;;;4878728;29;20430;-65
2022/11/01 11:57:53;;;;;;;5.25;1.85;;;;;;;;;;4879692;29;20052;-64
2022/11/01 12:00:22;;;;;;;2.97;1.33;;;;;;;;;;4877960;29;20041;-65
2022/11/01 12:02:49;;;;;;;3.58;1.20;;;;;;;;;;4879111;29;20124;-64
2022/11/01 12:05:16;;;;;;;2.47;0.75;;;;;;;;;;4879315;29;20045;-65
2022/11/01 12:07:50;;;;;;;3.10;1.00;;;;;;;;;;4878025;29;20107;-65
2022/11/01 12:10:37;;;;;;;3.88;1.35;;;;;;;;;;4879289;29;20061;-66
2022/11/01 12:13:20;;;;;;;5.25;1.50;;;;;;;;;;4878530;29;20406;-65
2022/11/01 12:15:46;;;;;;;5.22;1.60;;;;;;;;;;4879308;29;20518;-64
2022/11/01 12:18:15;;;;;;;4.95;1.42;;;;;;;;;;4862646;29;20053;-65
2022/11/01 12:20:42;;;;;;;5.88;1.50;;;;;;;;;;4879303;29;20097;-65
2022/11/01 12:23:38;;;;;;;4.15;1.38;;;;;;;;;;4878431;29;20056;-64
2022/11/01 12:26:06;;;;;;;4.88;1.80;;;;;;;;;;4873899;29;20073;-66
2022/11/01 12:28:39;;;;;;;4.97;1.23;;;;;;;;;;4877679;29;20067;-64
2022/11/01 12:31:18;;;;;;;4.00;1.23;;;;;;;;;;4878946;29;20065;-65
2022/11/01 12:34:04;;;;;;;6.63;1.50;;;;;;;;;;4878635;29;20041;-64
2022/11/01 12:36:50;;;;;;;4.00;1.63;;;;;;;;;;4862314;29;20052;-64
2022/11/01 12:39:36;;;;;;;5.03;1.33;;;;;;;;;;4867905;29;20053;-64
2022/11/01 12:42:03;;;;;;;2.97;1.00;;;;;;;;;;4877202;29;20417;-64
2022/11/01 12:44:42;;;;;;;4.90;1.40;;;;;;;;;;4877537;29;20363;-65
2022/11/01 12:47:23;;;;;;;4.47;1.50;;;;;;;;;;4878783;29;20127;-67
2022/11/01 12:50:00;;;;;;;2.90;1.10;;;;;;;;;;4877581;29;20053;-64
2022/11/01 12:52:26;;;;;;;4.85;1.23;;;;;;;;;;4878147;29;20462;-63
2022/11/01 12:55:05;;;;;;;5.43;1.30;;;;;;;;;;4861850;29;20049;-62
2022/11/01 12:57:32;;;;;;;5.20;1.33;;;;;;;;;;4878667;29;20116;-66
2022/11/01 12:59:59;;;;;;;8.10;1.63;;;;;;;;;;4878979;29;20041;-63
2022/11/01 13:02:26;;;;;;;4.88;1.48;;;;;;;;;;4878189;29;20425;-63
2022/11/01 13:05:04;;;;;;;5.15;1.70;;;;;;;;;;4879832;29;20048;-64
2022/11/01 13:07:38;;;;;;;8.52;1.33;;;;;;;;;;4880172;29;20531;-65
2022/11/01 13:10:12;;;;;;;4.72;1.80;;;;;;;;;;4879719;29;20510;-64
2022/11/01 13:12:38;;;;;;;6.80;1.40;;;;;;;;;;4878796;29;20051;-63
2022/11/01 13:15:05;;;;;;;6.35;1.80;;;;;;;;;;4880515;29;20045;-65
2022/11/01 13:17:46;;;;;;;8.35;2.10;;;;;;;;;;4881585;29;20104;-65
2022/11/01 13:20:20;;;;;;;4.85;1.50;;;;;;;;;;4880696;29;20459;-64
2022/11/01 13:22:51;;;;;;;6.75;1.90;;;;;;;;;;4878993;29;20056;-64
2022/11/01 13:25:21;;;;;;;9.02;1.40;;;;;;;;;;4879285;29;20061;-63
2022/11/01 13:27:53;;;;;;;5.63;2.03;;;;;;;;;;4877669;29;20083;-62
2022/11/01 13:30:19;;;;;;;8.02;1.48;;;;;;;;;;4878850;29;20045;-63
2022/11/01 13:32:57;;;;;;;5.43;1.60;;;;;;;;;;4878222;29;20410;-63
2022/11/01 13:35:40;;;;;;;5.68;1.67;;;;;;;;;;4878152;29;20067;-64
2022/11/01 13:38:30;;;;;;;7.03;1.38;;;;;;;;;;4878944;29;20041;-64
2022/11/01 13:41:18;;;;;;;4.55;1.50;;;;;;;;;;4874306;29;20041;-64
2022/11/01 13:43:47;;;;;;;8.88;1.40;;;;;;;;;;4876613;29;20076;-63
2022/11/01 13:46:14;;;;;;;3.58;1.38;;;;;;;;;;4878560;29;20048;-63
2022/11/01 13:48:43;;;;;;;6.57;1.98;;;;;;;;;;4878218;29;20083;-64
2022/11/01 13:51:19;;;;;;;4.13;1.38;;;;;;;;;;4878043;29;20056;-65
2022/11/01 13:53:56;;;;;;;9.23;1.85;;;;;;;;;;4877513;29;20422;-65
2022/11/01 13:56:27;;;;;;;7.93;1.63;;;;;;;;;;4878049;29;20455;-61
2022/11/01 13:58:54;;;;;;;7.78;2.00;;;;;;;;;;4877995;29;20053;-65
2022/11/01 14:01:24;;;;;;;5.72;1.80;;;;;;;;;;4876564;29;20045;-66
2022/11/01 14:04:05;;;;;;;8.18;2.22;;;;;;;;;;4876582;29;20053;-65
2022/11/01 14:06:35;;;;;;;4.57;1.48;;;;;;;;;;4878040;29;20060;-65
2022/11/01 14:09:18;;;;;;;5.88;1.75;;;;;;;;;;4861206;29;20510;-64
2022/11/01 14:11:46;;;;;;;5.82;2.00;;;;;;;;;;4860882;29;20151;-63
2022/11/01 14:14:28;;;;;;;8.85;1.70;;;;;;;;;;4878257;29;20051;-65
2022/11/01 14:17:13;;;;;;;46.58;4.85;;;;;;;;;;4877085;29;20524;-65
2022/11/01 14:19:41;;;;;;;93.88;6.80;;;;;;;;;;4878551;29;20045;-64
2022/11/01 14:22:27;;;;;;;7.13;1.48;;;;;;;;;;4879045;29;20041;-64
2022/11/01 14:24:55;;;;;;;10.55;2.38;;;;;;;;;;4883053;29;20537;-64
2022/11/01 14:27:32;;;;;;;5.05;1.50;;;;;;;;;;4882609;29;20532;-64
2022/11/01 14:30:00;;;;;;;5.15;1.70;;;;;;;;;;4880045;29;20109;-65
2022/11/01 14:32:28;;;;;;;6.22;1.70;;;;;;;;;;4880539;29;20057;-65
2022/11/01 14:35:10;;;;;;;8.43;2.03;;;;;;;;;;4881057;29;20358;-64
2022/11/01 14:37:39;;;;;;;6.40;1.52;;;;;;;;;;4881216;29;20053;-66
2022/11/01 14:40:20;;;;;;;8.25;1.83;;;;;;;;;;4879764;29;20053;-65
2022/11/01 14:42:47;;;;;;;7.20;2.40;;;;;;;;;;4880389;29;20041;-65
2022/11/01 14:45:23;;;;;;;5.60;1.70;;;;;;;;;;4880904;29;20045;-64
2022/11/01 14:47:51;;;;;;;8.10;1.67;;;;;;;;;;4880942;29;20049;-65
2022/11/01 14:50:24;;;;;;;12.15;2.22;;;;;;;;;;4880758;29;20045;-65
2022/11/01 14:52:57;;;;;;;13.23;2.35;;;;;;;;;;4880395;29;20045;-65
2022/11/01 14:55:31;;;;;;;12.30;2.25;;;;;;;;;;4880592;29;20506;-65
2022/11/01 14:58:17;;;;;;;6.20;1.67;;;;;;;;;;4880639;29;20079;-63
2022/11/01 15:00:44;;;;;;;12.52;2.47;;;;;;;;;;4880742;29;20128;-64
2022/11/01 15:03:10;;;;;;;7.63;1.85;;;;;;;;;;4880234;29;20101;-65
2022/11/01 15:05:46;;;;;;;7.38;2.25;;;;;;;;;;4879282;29;20056;-63
2022/11/01 15:08:30;;;;;;;8.10;1.55;;;;;;;;;;4863890;29;20048;-65